Time;durP1;ratioP1;P1;durP2;ratioP2;P2;SDS_P1;SDS_P2;PMS_P1;PMS_P2;Temp;Humidity;BMP_temperature;BMP_pressure;BME280_temperature;BME280_humidity;BME280_pressure;Samples;Min_cycle;Max_cycle;Signal;HPM_P1;HPM_P2
2021/07/03 00:01:14;;;;;;;17.90;11.37;;;15.80;99.90;;;;;;5066830;28;21004;-55
2021/07/03 00:03:40;;;;;;;19.17;11.90;;;15.80;99.90;;;;;;5061852;28;20467;-56
2021/07/03 00:06:06;;;;;;;20.42;11.95;;;15.90;99.90;;;;;;5069652;28;20471;-55
2021/07/03 00:08:32;;;;;;;19.63;11.27;;;15.90;99.90;;;;;;5070426;28;20416;-56
2021/07/03 00:11:01;;;;;;;18.67;11.60;;;15.90;99.90;;;;;;5068791;28;21341;-55
2021/07/03 00:13:27;;;;;;;20.02;11.80;;;15.80;99.90;;;;;;5070553;28;20376;-56
2021/07/03 00:15:53;;;;;;;17.70;11.60;;;15.70;99.90;;;;;;5068845;28;20406;-55
2021/07/03 00:18:19;;;;;;;18.70;11.30;;;15.60;99.90;;;;;;5063776;28;20949;-56
2021/07/03 00:20:45;;;;;;;19.13;11.20;;;15.50;99.90;;;;;;5055557;28;20401;-56
2021/07/03 00:23:12;;;;;;;20.93;11.50;;;15.50;99.90;;;;;;5051621;28;20420;-55
2021/07/03 00:25:38;;;;;;;19.42;11.90;;;15.50;99.90;;;;;;5064759;28;20379;-57
2021/07/03 00:28:04;;;;;;;18.48;11.20;;;15.50;99.90;;;;;;5069477;28;20784;-57
2021/07/03 00:30:30;;;;;;;20.80;11.50;;;15.60;99.90;;;;;;5052222;28;20483;-56
2021/07/03 00:32:56;;;;;;;18.33;11.50;;;15.50;99.90;;;;;;5069996;28;20466;-56
2021/07/03 00:35:21;;;;;;;17.47;10.90;;;15.60;99.90;;;;;;5070295;28;20390;-57
2021/07/03 00:37:47;;;;;;;18.58;11.48;;;15.50;99.90;;;;;;5069840;28;20387;-56
2021/07/03 00:40:14;;;;;;;20.57;11.60;;;15.50;99.90;;;;;;5069453;28;20395;-57
2021/07/03 00:42:40;;;;;;;18.50;11.70;;;15.40;99.90;;;;;;5070211;28;20375;-57
2021/07/03 00:45:07;;;;;;;20.38;11.90;;;15.20;99.90;;;;;;5068748;28;20375;-57
2021/07/03 00:47:33;;;;;;;19.38;11.65;;;15.20;99.90;;;;;;5069451;28;20403;-57
2021/07/03 00:50:00;;;;;;;16.58;10.57;;;15.10;99.90;;;;;;5069214;28;20395;-57
2021/07/03 00:52:26;;;;;;;18.50;12.60;;;15.00;99.90;;;;;;5069685;28;20411;-57
2021/07/03 00:54:52;;;;;;;17.90;11.60;;;15.00;99.90;;;;;;5069885;28;20485;-56
2021/07/03 00:57:18;;;;;;;17.90;11.80;;;15.10;99.90;;;;;;5069153;28;20399;-57
2021/07/03 00:59:46;;;;;;;20.25;12.20;;;15.20;99.90;;;;;;5051752;28;20773;-57
2021/07/03 01:02:14;;;;;;;19.65;11.77;;;15.40;99.90;;;;;;5069088;28;20474;-57
2021/07/03 01:04:40;;;;;;;17.95;11.00;;;15.30;99.90;;;;;;5069899;28;20936;-56
2021/07/03 01:07:07;;;;;;;17.30;11.20;;;15.40;99.90;;;;;;5068973;28;20472;-57
2021/07/03 01:09:33;;;;;;;21.60;11.70;;;15.40;99.90;;;;;;5069682;28;20463;-56
2021/07/03 01:12:00;;;;;;;19.67;11.33;;;15.30;99.90;;;;;;5068642;28;20376;-56
2021/07/03 01:14:26;;;;;;;22.08;12.55;;;15.20;99.90;;;;;;5051700;28;20730;-57
2021/07/03 01:16:52;;;;;;;19.52;12.07;;;15.00;99.90;;;;;;5069608;28;20456;-56
2021/07/03 01:19:18;;;;;;;19.58;11.82;;;14.80;99.90;;;;;;5068838;28;21159;-56
2021/07/03 01:21:52;;;;;;;19.42;12.13;;;14.70;99.90;;;;;;5069077;28;20402;-56
2021/07/03 01:24:18;;;;;;;21.17;12.20;;;14.70;99.90;;;;;;5068813;28;20482;-56
2021/07/03 01:26:46;;;;;;;18.75;11.32;;;14.70;99.90;;;;;;5056317;28;20388;-56
2021/07/03 01:29:13;;;;;;;18.63;11.65;;;14.70;99.90;;;;;;5068619;28;20770;-57
2021/07/03 01:31:43;;;;;;;19.35;11.88;;;14.70;99.90;;;;;;5063431;28;20382;-57
2021/07/03 01:34:09;;;;;;;17.13;11.55;;;14.70;99.90;;;;;;5031541;28;20424;-56
2021/07/03 01:36:35;;;;;;;20.50;11.82;;;14.60;99.90;;;;;;5069469;28;20738;-56
2021/07/03 01:39:02;;;;;;;21.77;11.13;;;14.50;99.90;;;;;;5068422;28;20514;-57
2021/07/03 01:41:27;;;;;;;18.00;10.53;;;14.50;99.90;;;;;;5073196;28;20857;-57
2021/07/03 01:43:53;;;;;;;19.88;11.88;;;14.70;99.90;;;;;;5069337;28;20446;-56
2021/07/03 01:46:18;;;;;;;18.50;11.00;;;14.70;99.90;;;;;;5052506;28;20389;-56
2021/07/03 01:48:44;;;;;;;18.37;10.87;;;14.80;99.90;;;;;;5053324;28;20739;-56
2021/07/03 01:51:10;;;;;;;17.48;10.75;;;14.80;99.90;;;;;;5052371;28;20895;-56
2021/07/03 01:53:35;;;;;;;16.30;10.25;;;14.70;99.90;;;;;;5053092;28;20478;-57
2021/07/03 01:56:01;;;;;;;21.23;11.53;;;14.70;99.90;;;;;;5052438;28;20806;-57
2021/07/03 01:58:27;;;;;;;19.50;11.30;;;14.70;99.90;;;;;;5053185;28;20389;-56
2021/07/03 02:00:55;;;;;;;16.77;11.30;;;14.50;99.90;;;;;;5053325;28;20948;-56
2021/07/03 02:03:24;;;;;;;18.13;11.18;;;14.40;99.90;;;;;;5052516;28;20527;-56
2021/07/03 02:05:51;;;;;;;17.73;10.35;;;14.30;99.90;;;;;;5053180;28;20472;-56
2021/07/03 02:08:17;;;;;;;18.85;11.13;;;14.30;99.90;;;;;;5052126;28;20707;-56
2021/07/03 02:10:43;;;;;;;17.90;10.95;;;14.30;99.90;;;;;;5066433;28;20465;-56
2021/07/03 02:13:09;;;;;;;18.20;10.75;;;14.40;99.90;;;;;;5072181;28;20380;-56
2021/07/03 02:15:35;;;;;;;18.50;11.57;;;14.30;99.90;;;;;;5072680;28;20449;-56
2021/07/03 02:18:01;;;;;;;17.48;11.52;;;14.30;99.90;;;;;;5071721;28;20792;-56
2021/07/03 02:20:27;;;;;;;17.80;10.50;;;14.30;99.90;;;;;;5072842;28;20387;-56
2021/07/03 02:22:53;;;;;;;18.63;11.60;;;14.30;99.90;;;;;;5072694;28;20392;-56
2021/07/03 02:25:19;;;;;;;17.30;10.70;;;14.30;99.90;;;;;;5071919;28;20395;-56
2021/07/03 02:27:44;;;;;;;17.70;10.80;;;14.30;99.90;;;;;;5072326;28;20461;-56
2021/07/03 02:30:13;;;;;;;19.70;10.90;;;14.30;99.90;;;;;;5038167;28;20387;-56
2021/07/03 02:32:40;;;;;;;19.30;10.80;;;14.30;99.90;;;;;;5032583;28;20450;-57
2021/07/03 02:35:09;;;;;;;18.53;10.93;;;14.40;99.90;;;;;;5032163;28;20387;-57
2021/07/03 02:37:36;;;;;;;20.58;11.68;;;14.40;99.90;;;;;;5015061;28;20419;-56
2021/07/03 02:40:05;;;;;;;18.07;10.80;;;14.40;99.90;;;;;;5031430;28;20869;-57
2021/07/03 02:42:31;;;;;;;18.13;10.43;;;14.40;99.90;;;;;;5032538;28;20464;-57
2021/07/03 02:44:56;;;;;;;18.58;11.32;;;14.40;99.90;;;;;;5031851;28;20375;-56
2021/07/03 02:47:22;;;;;;;18.60;11.10;;;14.50;99.90;;;;;;5031643;28;20414;-57
2021/07/03 02:49:48;;;;;;;18.10;11.10;;;14.40;99.90;;;;;;5032066;28;20387;-56
2021/07/03 02:52:14;;;;;;;17.00;10.90;;;14.50;99.90;;;;;;5030442;28;20504;-56
2021/07/03 02:54:39;;;;;;;17.38;11.23;;;14.50;99.90;;;;;;5032200;28;20375;-57
2021/07/03 02:57:05;;;;;;;17.37;11.67;;;14.50;99.90;;;;;;5031456;28;20386;-56
2021/07/03 02:59:31;;;;;;;21.45;13.05;;;14.50;99.90;;;;;;5032157;28;20861;-57
2021/07/03 03:01:56;;;;;;;21.73;11.70;;;14.50;99.90;;;;;;5031736;28;20830;-56
2021/07/03 03:04:22;;;;;;;19.00;11.13;;;14.50;99.90;;;;;;5031782;28;20421;-57
2021/07/03 03:06:48;;;;;;;18.20;11.80;;;14.40;99.90;;;;;;5031608;28;21274;-57
2021/07/03 03:09:16;;;;;;;21.87;12.13;;;14.30;99.90;;;;;;5030708;28;20411;-57
2021/07/03 03:11:42;;;;;;;21.83;12.13;;;14.20;99.90;;;;;;5031425;28;20391;-57
2021/07/03 03:14:08;;;;;;;20.42;12.65;;;14.20;99.90;;;;;;5030689;28;20387;-57
2021/07/03 03:16:35;;;;;;;22.20;12.93;;;14.10;99.90;;;;;;5031486;28;20382;-57
2021/07/03 03:19:01;;;;;;;22.65;12.63;;;14.10;99.90;;;;;;5031021;28;20391;-57
2021/07/03 03:21:27;;;;;;;23.70;11.23;;;14.10;99.90;;;;;;5031500;28;20796;-57
2021/07/03 03:23:53;;;;;;;23.25;13.20;;;14.10;99.90;;;;;;5031637;28;20777;-56
2021/07/03 03:26:18;;;;;;;20.77;13.20;;;14.20;99.90;;;;;;5031070;28;20841;-57
2021/07/03 03:28:44;;;;;;;21.40;13.00;;;14.20;99.90;;;;;;5031756;28;20426;-56
2021/07/03 03:31:10;;;;;;;21.97;13.30;;;14.10;99.90;;;;;;5030732;28;20433;-56
2021/07/03 03:33:36;;;;;;;25.67;14.50;;;14.10;99.90;;;;;;5031828;28;20391;-56
2021/07/03 03:36:02;;;;;;;22.50;13.67;;;14.00;99.90;;;;;;5030822;28;20376;-55
2021/07/03 03:38:27;;;;;;;22.52;13.93;;;14.00;99.90;;;;;;5031547;28;20425;-56
2021/07/03 03:40:53;;;;;;;24.65;13.10;;;14.00;99.90;;;;;;5031111;28;20810;-56
2021/07/03 03:43:19;;;;;;;23.30;13.43;;;14.00;99.90;;;;;;5030514;28;20380;-55
2021/07/03 03:45:45;;;;;;;23.00;14.10;;;14.00;99.90;;;;;;5031278;28;20866;-56
2021/07/03 03:48:11;;;;;;;23.00;12.98;;;14.00;99.90;;;;;;5030285;28;20415;-56
2021/07/03 03:50:36;;;;;;;21.55;13.27;;;14.00;99.90;;;;;;5031009;28;20422;-55
2021/07/03 03:53:03;;;;;;;21.80;14.27;;;14.00;99.90;;;;;;5030570;28;20389;-56
2021/07/03 03:55:29;;;;;;;24.88;13.77;;;12.40;99.90;;;;;;5031180;28;20379;-57
2021/07/03 03:57:55;;;;;;;22.50;13.68;;;14.20;99.90;;;;;;5031035;28;20865;-57
2021/07/03 04:00:21;;;;;;;23.10;14.52;;;14.20;99.90;;;;;;5012713;28;20466;-56
2021/07/03 04:02:47;;;;;;;23.77;13.80;;;14.20;99.90;;;;;;5030696;28;20395;-56
2021/07/03 04:05:14;;;;;;;24.00;13.48;;;14.10;99.90;;;;;;5030010;28;20387;-56
2021/07/03 04:07:40;;;;;;;22.08;13.30;;;14.10;99.90;;;;;;5031003;28;20546;-56
2021/07/03 04:10:08;;;;;;;22.02;14.02;;;14.20;99.90;;;;;;5030394;28;20927;-56
2021/07/03 04:12:34;;;;;;;23.45;14.57;;;14.30;99.90;;;;;;5030762;28;20387;-57
2021/07/03 04:15:00;;;;;;;23.70;13.57;;;14.30;99.90;;;;;;5029561;28;20391;-56
2021/07/03 04:17:26;;;;;;;22.63;13.80;;;14.30;99.90;;;;;;5030892;28;20394;-56
2021/07/03 04:19:52;;;;;;;23.52;14.02;;;14.40;99.90;;;;;;5030482;28;20399;-56
2021/07/03 04:22:19;;;;;;;22.13;13.55;;;14.40;99.90;;;;;;5029936;28;20855;-56
2021/07/03 04:24:45;;;;;;;22.60;13.57;;;14.40;99.90;;;;;;5030301;28;20387;-56
2021/07/03 04:27:11;;;;;;;23.50;14.18;;;14.40;99.90;;;;;;5011863;28;20401;-56
2021/07/03 04:29:37;;;;;;;22.90;13.80;;;14.50;99.90;;;;;;5030277;28;20876;-56
2021/07/03 04:32:03;;;;;;;22.70;12.30;;;14.60;99.90;;;;;;5029175;28;20386;-56
2021/07/03 04:34:28;;;;;;;20.70;13.32;;;14.80;99.90;;;;;;5030272;28;20414;-56
2021/07/03 04:36:55;;;;;;;22.50;13.07;;;14.90;99.90;;;;;;5030095;28;20436;-57
2021/07/03 04:39:21;;;;;;;21.70;13.30;;;15.00;99.90;;;;;;5029462;28;20368;-56
2021/07/03 04:41:46;;;;;;;21.45;12.50;;;15.10;99.90;;;;;;5029939;28;20387;-57
2021/07/03 04:44:13;;;;;;;18.67;12.00;;;15.30;99.90;;;;;;5029528;28;20380;-56
2021/07/03 04:46:39;;;;;;;19.08;12.23;;;15.50;99.90;;;;;;5030173;28;20484;-56
2021/07/03 04:49:05;;;;;;;19.15;12.18;;;15.60;99.90;;;;;;5029179;28;20970;-56
2021/07/03 04:51:31;;;;;;;21.17;12.40;;;15.60;99.90;;;;;;5029833;28;20403;-57
2021/07/03 04:53:58;;;;;;;20.27;12.50;;;15.80;99.90;;;;;;5030050;28;20718;-57
2021/07/03 04:56:24;;;;;;;20.13;12.40;;;16.10;99.90;;;;;;5029556;28;20383;-57
2021/07/03 04:58:49;;;;;;;19.17;12.00;;;16.20;99.90;;;;;;5030091;28;20773;-57
2021/07/03 05:01:15;;;;;;;16.00;11.17;;;16.50;99.90;;;;;;5011342;28;20383;-54
2021/07/03 05:03:41;;;;;;;18.27;11.98;;;17.40;99.90;;;;;;5029761;28;20381;-55
2021/07/03 05:06:06;;;;;;;15.77;11.00;;;18.40;99.90;;;;;;5029187;28;20501;-55
2021/07/03 05:08:32;;;;;;;16.40;10.40;;;19.30;99.90;;;;;;5029534;28;20414;-55
2021/07/03 05:10:58;;;;;;;19.10;10.20;;;20.10;99.90;;;;;;5029554;28;20439;-56
2021/07/03 05:13:23;;;;;;;16.50;10.37;;;21.10;99.90;;;;;;5028843;28;20395;-56
2021/07/03 05:15:49;;;;;;;16.60;10.30;;;21.90;99.90;;;;;;5028766;28;20474;-56
2021/07/03 05:18:16;;;;;;;16.52;10.20;;;22.20;99.90;;;;;;5029151;28;20781;-56
2021/07/03 05:20:41;;;;;;;15.52;10.43;;;22.10;99.90;;;;;;5029708;28;20809;-57
2021/07/03 05:23:07;;;;;;;16.30;10.13;;;22.20;99.90;;;;;;5028708;28;20470;-57
2021/07/03 05:25:33;;;;;;;17.77;9.90;;;22.40;99.90;;;;;;5029128;28;20385;-57
2021/07/03 05:27:58;;;;;;;14.63;9.50;;;22.30;99.90;;;;;;5029506;28;20415;-57
2021/07/03 05:30:24;;;;;;;14.73;9.97;;;22.90;99.90;;;;;;5028737;28;20857;-54
2021/07/03 05:32:50;;;;;;;14.57;8.93;;;23.50;99.90;;;;;;5029439;28;20818;-54
2021/07/03 05:35:15;;;;;;;13.23;9.18;;;23.60;99.90;;;;;;5010938;28;20414;-55
2021/07/03 05:37:43;;;;;;;14.10;9.10;;;23.60;99.90;;;;;;5029377;28;20457;-55
2021/07/03 05:40:12;;;;;;;14.15;9.20;;;23.70;99.90;;;;;;5028353;28;20857;-56
2021/07/03 05:42:39;;;;;;;14.77;9.65;;;23.60;99.90;;;;;;5029375;28;20387;-56
2021/07/03 05:45:05;;;;;;;13.82;8.60;;;24.30;99.90;;;;;;5010736;28;20391;-56
2021/07/03 05:47:32;;;;;;;13.33;9.30;;;24.40;99.90;;;;;;5028957;28;20493;-56
2021/07/03 05:49:57;;;;;;;12.82;8.82;;;24.70;99.90;;;;;;5029133;28;20434;-56
2021/07/03 05:52:23;;;;;;;13.10;8.80;;;25.20;99.90;;;;;;5037044;28;20466;-55
2021/07/03 05:54:49;;;;;;;15.13;9.05;;;25.60;99.90;;;;;;5043400;28;20391;-55
2021/07/03 05:57:15;;;;;;;13.90;9.02;;;26.10;99.90;;;;;;5030765;28;20383;-56
2021/07/03 05:59:41;;;;;;;14.70;9.80;;;26.90;99.90;;;;;;5030596;28;20725;-56
2021/07/03 06:02:08;;;;;;;17.33;9.45;;;27.40;99.80;;;;;;5054172;28;20382;-57
2021/07/03 06:04:34;;;;;;;15.47;13.57;;;27.70;98.50;;;;;;5049111;28;20445;-57
2021/07/03 06:07:00;;;;;;;13.13;8.57;;;28.40;97.60;;;;;;5057469;28;20387;-57
2021/07/03 06:09:26;;;;;;;13.10;9.10;;;28.70;94.90;;;;;;5056415;28;20398;-57
2021/07/03 06:11:52;;;;;;;12.40;8.57;;;28.80;93.80;;;;;;5068954;28;20386;-57
2021/07/03 06:14:18;;;;;;;14.18;8.60;;;27.90;93.60;;;;;;5067622;28;20436;-57
2021/07/03 06:16:44;;;;;;;15.00;9.23;;;27.60;94.50;;;;;;5068413;28;20472;-57
2021/07/03 06:19:10;;;;;;;14.87;9.47;;;27.20;96.00;;;;;;5068286;28;20441;-57
2021/07/03 06:21:36;;;;;;;13.70;8.70;;;27.40;95.20;;;;;;5043816;28;20410;-56
2021/07/03 06:24:02;;;;;;;12.82;9.52;;;28.20;94.00;;;;;;5063112;28;20391;-56
2021/07/03 06:26:28;;;;;;;15.45;11.48;;;28.50;92.50;;;;;;5055089;28;20390;-58
2021/07/03 06:28:54;;;;;;;13.70;9.80;;;29.40;91.40;;;;;;5052255;28;20420;-56
2021/07/03 06:31:19;;;;;;;15.07;13.57;;;29.70;90.40;;;;;;5051327;28;20394;-56
2021/07/03 06:33:45;;;;;;;12.50;8.10;;;30.60;85.90;;;;;;5052295;28;20386;-56
2021/07/03 06:36:11;;;;;;;12.90;8.87;;;31.10;82.20;;;;;;5051506;28;20450;-56
2021/07/03 06:38:36;;;;;;;12.70;8.43;;;30.30;83.60;;;;;;5051911;28;20851;-57
2021/07/03 06:41:03;;;;;;;13.87;8.90;;;30.50;82.70;;;;;;5052088;28;20389;-56
2021/07/03 06:43:29;;;;;;;11.60;7.85;;;30.60;80.30;;;;;;5051839;28;20416;-57
2021/07/03 06:45:54;;;;;;;10.93;7.20;;;31.00;80.00;;;;;;5069848;28;20750;-57
2021/07/03 06:48:21;;;;;;;11.80;7.67;;;31.20;78.10;;;;;;5071045;28;20408;-56
2021/07/03 06:50:47;;;;;;;12.00;8.13;;;31.40;74.40;;;;;;5071685;28;20415;-56
2021/07/03 06:53:12;;;;;;;11.57;7.40;;;31.60;74.00;;;;;;5071075;28;20745;-54
2021/07/03 06:55:38;;;;;;;11.70;8.30;;;31.60;73.40;;;;;;5071241;28;20376;-52
2021/07/03 06:58:05;;;;;;;12.23;7.80;;;32.00;72.10;;;;;;5025434;28;20410;-59
2021/07/03 07:00:31;;;;;;;12.10;7.60;;;31.20;74.90;;;;;;5042839;28;20385;-52
2021/07/03 07:02:57;;;;;;;11.70;8.03;;;30.70;74.30;;;;;;5033527;28;20377;-52
2021/07/03 07:05:22;;;;;;;11.23;7.70;;;30.50;76.30;;;;;;5050953;28;20854;-52
2021/07/03 07:07:48;;;;;;;12.40;7.83;;;30.30;76.20;;;;;;5051396;28;20467;-51
2021/07/03 07:10:14;;;;;;;11.83;7.83;;;30.50;75.70;;;;;;5050591;28;20382;-53
2021/07/03 07:12:39;;;;;;;12.80;7.37;;;30.80;75.30;;;;;;5051290;28;20389;-52
2021/07/03 07:15:06;;;;;;;11.02;7.30;;;31.90;71.00;;;;;;5050864;28;20377;-58
2021/07/03 07:17:31;;;;;;;13.40;8.00;;;32.20;69.70;;;;;;5051817;28;20385;-51
2021/07/03 07:19:57;;;;;;;12.20;7.87;;;31.80;70.50;;;;;;5050936;28;20473;-54
2021/07/03 07:22:23;;;;;;;10.20;7.40;;;31.20;71.20;;;;;;5050320;28;20539;-52
2021/07/03 07:24:48;;;;;;;12.35;7.32;;;31.00;72.20;;;;;;5047945;28;20383;-53
2021/07/03 07:27:14;;;;;;;11.07;6.78;;;31.30;71.20;;;;;;5039938;28;20756;-52
2021/07/03 07:29:39;;;;;;;10.50;7.13;;;30.70;74.10;;;;;;5041046;28;20463;-53
2021/07/03 07:32:05;;;;;;;12.20;7.70;;;30.90;73.00;;;;;;5020604;28;20761;-56
2021/07/03 07:34:31;;;;;;;11.50;7.40;;;31.60;70.80;;;;;;5040998;28;20804;-52
2021/07/03 07:36:57;;;;;;;11.13;7.40;;;31.50;70.00;;;;;;5040579;28;20433;-53
2021/07/03 07:39:23;;;;;;;11.50;7.27;;;31.00;71.20;;;;;;5018488;28;20535;-52
2021/07/03 07:41:48;;;;;;;11.03;7.60;;;30.70;73.10;;;;;;5038846;28;20697;-53
2021/07/03 07:44:14;;;;;;;10.55;7.07;;;30.90;71.60;;;;;;5038725;28;20390;-51
2021/07/03 07:46:39;;;;;;;11.15;7.20;;;30.90;72.30;;;;;;5037203;28;20757;-52
2021/07/03 07:49:05;;;;;;;10.40;7.07;;;31.60;68.50;;;;;;5011938;28;20881;-58
2021/07/03 07:51:32;;;;;;;11.80;7.10;;;30.80;72.70;;;;;;5030562;28;20975;-53
2021/07/03 07:53:57;;;;;;;10.70;7.00;;;31.00;69.80;;;;;;5012532;28;20521;-51
2021/07/03 07:56:23;;;;;;;10.87;7.50;;;31.60;67.90;;;;;;5012151;28;20415;-52
2021/07/03 07:58:49;;;;;;;11.77;7.60;;;32.00;68.50;;;;;;5012797;28;20391;-51
2021/07/03 08:01:15;;;;;;;12.68;8.57;;;32.10;66.80;;;;;;5028518;28;20619;-54
2021/07/03 08:03:41;;;;;;;10.88;7.00;;;32.40;66.90;;;;;;5050540;28;20919;-54
2021/07/03 08:06:07;;;;;;;11.40;7.00;;;32.50;65.30;;;;;;5031583;28;20396;-54
2021/07/03 08:08:33;;;;;;;10.57;6.82;;;33.50;63.90;;;;;;5031995;28;21294;-54
2021/07/03 08:10:59;;;;;;;10.60;7.30;;;34.60;60.40;;;;;;5032465;28;20806;-54
2021/07/03 08:13:24;;;;;;;10.40;6.80;;;34.10;58.60;;;;;;5049983;28;20629;-53
2021/07/03 08:15:50;;;;;;;11.33;8.53;;;33.80;58.50;;;;;;5050328;28;20472;-53
2021/07/03 08:18:19;;;;;;;10.77;7.00;;;34.70;57.60;;;;;;5049409;28;20946;-55
2021/07/03 08:20:46;;;;;;;9.90;6.65;;;34.00;58.50;;;;;;5032369;28;20948;-54
2021/07/03 08:23:12;;;;;;;11.48;6.95;;;33.70;57.60;;;;;;5049282;28;20396;-54
2021/07/03 08:25:37;;;;;;;10.60;6.90;;;34.10;56.40;;;;;;5049672;28;20386;-55
2021/07/03 08:28:03;;;;;;;11.47;6.80;;;33.90;55.90;;;;;;5048817;28;20467;-60
2021/07/03 08:30:29;;;;;;;10.63;6.33;;;34.10;55.00;;;;;;5050034;28;20385;-54
2021/07/03 08:32:55;;;;;;;10.43;6.70;;;34.10;54.60;;;;;;5049913;28;20381;-58
2021/07/03 08:35:21;;;;;;;9.60;6.75;;;34.30;55.90;;;;;;5049372;28;20377;-54
2021/07/03 08:37:47;;;;;;;11.48;6.50;;;34.70;53.80;;;;;;5028618;28;20490;-53
2021/07/03 08:40:14;;;;;;;10.10;6.30;;;35.70;53.20;;;;;;5038271;28;20404;-57
2021/07/03 08:42:40;;;;;;;10.00;6.10;;;35.00;52.50;;;;;;5022426;28;20806;-53
2021/07/03 08:45:08;;;;;;;10.05;6.00;;;35.90;51.00;;;;;;5039590;28;20405;-58
2021/07/03 08:47:35;;;;;;;11.00;8.75;;;36.50;50.10;;;;;;5040794;28;20827;-54
2021/07/03 08:50:02;;;;;;;9.27;6.00;;;37.20;49.20;;;;;;5041526;28;20389;-55
2021/07/03 08:52:28;;;;;;;9.90;6.53;;;36.60;48.80;;;;;;5039216;28;20553;-54
2021/07/03 08:55:09;;;;;;;8.70;6.10;;;36.00;48.00;;;;;;5042154;28;20377;-54
2021/07/03 08:57:48;;;;;;;8.77;6.10;;;35.80;48.70;;;;;;5019417;28;20546;-56
2021/07/03 09:00:15;;;;;;;14.52;13.32;;;34.50;48.40;;;;;;5040365;28;20908;-53
2021/07/03 09:02:44;;;;;;;15.37;14.07;;;34.70;47.30;;;;;;5037998;28;20857;-54
2021/07/03 09:05:36;;;;;;;9.00;7.70;;;34.80;48.00;;;;;;5019739;28;20393;-55
2021/07/03 09:08:05;;;;;;;9.18;7.97;;;34.70;47.60;;;;;;5031398;28;20920;-55
2021/07/03 09:10:32;;;;;;;9.20;6.00;;;35.20;47.80;;;;;;5019166;28;20476;-55
2021/07/03 09:13:00;;;;;;;10.30;5.80;;;35.70;46.30;;;;;;5019658;28;20402;-55
2021/07/03 09:15:52;;;;;;;8.82;5.80;;;36.10;47.20;;;;;;5037943;28;20472;-54
2021/07/03 09:18:18;;;;;;;8.60;5.55;;;36.10;45.90;;;;;;5031202;28;20426;-54
2021/07/03 09:20:44;;;;;;;8.75;5.90;;;36.50;45.10;;;;;;5038665;28;20391;-53
2021/07/03 09:23:13;;;;;;;9.33;8.30;;;36.10;43.60;;;;;;5028107;28;20387;-53
2021/07/03 09:25:52;;;;;;;9.95;8.55;;;36.00;44.30;;;;;;5011073;28;20493;-53
2021/07/03 09:28:20;;;;;;;8.17;5.20;;;35.70;44.70;;;;;;5033545;28;20413;-53
2021/07/03 09:30:56;;;;;;;9.13;5.60;;;36.60;43.90;;;;;;5056622;28;20393;-53
2021/07/03 09:33:27;;;;;;;9.50;5.60;;;37.10;42.90;;;;;;5055387;28;20787;-55
2021/07/03 09:36:13;;;;;;;9.30;5.60;;;36.90;42.40;;;;;;5068897;28;20403;-53
2021/07/03 09:38:41;;;;;;;9.55;5.70;;;36.00;43.50;;;;;;5069159;28;20380;-53
2021/07/03 09:41:17;;;;;;;9.88;6.70;;;35.70;44.90;;;;;;5068816;28;20374;-58
2021/07/03 09:43:49;;;;;;;11.15;8.80;;;35.50;45.10;;;;;;5064177;28;20393;-56
2021/07/03 09:46:34;;;;;;;10.43;8.80;;;35.50;45.00;;;;;;5048283;28;20424;-53
2021/07/03 09:49:11;;;;;;;11.50;8.70;;;35.40;43.40;;;;;;5028980;28;20418;-52
2021/07/03 09:51:40;;;;;;;12.10;8.13;;;35.30;43.00;;;;;;5048094;28;20402;-53
2021/07/03 09:54:08;;;;;;;10.93;6.35;;;35.90;44.00;;;;;;5054002;28;20449;-60
2021/07/03 09:56:35;;;;;;;10.48;5.90;;;36.00;43.90;;;;;;5053841;28;20940;-54
2021/07/03 09:59:01;;;;;;;10.37;5.60;;;36.40;42.80;;;;;;5044377;28;20382;-53
2021/07/03 10:01:26;;;;;;;12.20;8.57;;;35.80;43.00;;;;;;5056531;28;20992;-55
2021/07/03 10:03:53;;;;;;;10.10;8.30;;;35.00;44.20;;;;;;5053093;28;20473;-56
2021/07/03 10:06:40;;;;;;;8.60;5.80;;;34.80;45.30;;;;;;5033585;28;20407;-55
2021/07/03 10:09:25;;;;;;;9.43;5.25;;;35.20;45.10;;;;;;5040668;28;20415;-59
2021/07/03 10:11:55;;;;;;;8.90;5.70;;;36.10;44.50;;;;;;5047204;28;20889;-53
2021/07/03 10:14:22;;;;;;;10.02;5.55;;;36.40;42.60;;;;;;5041988;28;20431;-54
2021/07/03 10:16:58;;;;;;;9.03;5.50;;;35.90;43.20;;;;;;5039077;28;20419;-54
2021/07/03 10:19:33;;;;;;;9.10;5.65;;;35.80;42.30;;;;;;5054888;28;20854;-54
2021/07/03 10:22:19;;;;;;;8.70;5.67;;;35.90;43.60;;;;;;5031666;28;20838;-54
2021/07/03 10:24:51;;;;;;;9.55;5.90;;;35.70;43.50;;;;;;5052473;28;20685;-57
2021/07/03 10:27:35;;;;;;;7.90;5.63;;;34.80;44.10;;;;;;5050919;28;20471;-54
2021/07/03 10:30:05;;;;;;;9.30;5.90;;;34.70;43.40;;;;;;5043674;28;20405;-56
2021/07/03 10:32:36;;;;;;;8.00;5.32;;;34.40;42.90;;;;;;5050779;28;20389;-56
2021/07/03 10:35:13;;;;;;;9.30;8.27;;;33.90;45.60;;;;;;5043789;28;20381;-54
2021/07/03 10:37:40;;;;;;;11.98;8.55;;;33.80;46.90;;;;;;5051324;28;20381;-54
2021/07/03 10:40:20;;;;;;;12.40;8.68;;;34.00;45.70;;;;;;5033181;28;20386;-59
2021/07/03 10:42:47;;;;;;;10.20;8.00;;;33.40;46.10;;;;;;5051402;28;20412;-58
2021/07/03 10:45:24;;;;;;;12.50;11.30;;;32.70;47.70;;;;;;5050954;28;20377;-54
2021/07/03 10:47:51;;;;;;;9.98;8.60;;;32.30;48.20;;;;;;5051843;28;20416;-53
2021/07/03 10:50:26;;;;;;;10.05;8.07;;;31.70;50.50;;;;;;5016057;28;20799;-53
2021/07/03 10:52:53;;;;;;;9.90;8.50;;;31.30;49.90;;;;;;5051786;28;20485;-53
2021/07/03 10:55:32;;;;;;;10.37;9.00;;;30.90;49.70;;;;;;5051032;28;20395;-54
2021/07/03 10:57:59;;;;;;;10.93;6.38;;;30.70;50.40;;;;;;5051197;28;20889;-53
2021/07/03 11:00:26;;;;;;;10.10;6.30;;;30.20;50.50;;;;;;5042465;28;20393;-53
2021/07/03 11:02:52;;;;;;;10.70;6.23;;;29.90;51.60;;;;;;5049860;28;20383;-58
2021/07/03 11:05:18;;;;;;;9.30;6.10;;;29.70;51.70;;;;;;5043448;28;20394;-54
2021/07/03 11:07:46;;;;;;;9.85;6.20;;;29.20;52.00;;;;;;5017556;28;20430;-55
2021/07/03 11:10:42;;;;;;;9.70;5.90;;;29.20;52.80;;;;;;5050385;28;20421;-58
2021/07/03 11:13:19;;;;;;;10.15;6.65;;;28.90;53.50;;;;;;5034838;28;20405;-60
2021/07/03 11:15:45;;;;;;;11.00;6.10;;;28.60;55.50;;;;;;5047480;28;20382;-56
2021/07/03 11:18:10;;;;;;;10.33;6.20;;;28.60;55.30;;;;;;5050273;28;20880;-54
2021/07/03 11:20:40;;;;;;;10.27;6.20;;;28.70;56.80;;;;;;5042526;28;20395;-53
2021/07/03 11:23:07;;;;;;;10.25;5.82;;;28.60;54.80;;;;;;5043452;28;20396;-59
2021/07/03 11:25:44;;;;;;;9.73;5.70;;;29.00;55.60;;;;;;5046782;28;20475;-54
2021/07/03 11:28:19;;;;;;;10.20;6.00;;;29.00;55.80;;;;;;5042229;28;20440;-58
2021/07/03 11:30:55;;;;;;;10.23;6.17;;;29.10;54.30;;;;;;5047671;28;20411;-54
2021/07/03 11:33:21;;;;;;;9.75;6.55;;;28.90;54.80;;;;;;5047351;28;20387;-54
2021/07/03 11:35:49;;;;;;;9.90;6.97;;;29.00;55.90;;;;;;5056161;28;20688;-57
2021/07/03 11:38:19;;;;;;;10.40;6.72;;;29.30;53.40;;;;;;5043750;28;20406;-53
2021/07/03 11:40:45;;;;;;;14.75;7.30;;;29.20;53.90;;;;;;5063120;28;20459;-53
2021/07/03 11:43:10;;;;;;;9.60;7.20;;;29.00;56.10;;;;;;5038947;28;20970;-60
2021/07/03 11:45:39;;;;;;;9.70;7.00;;;29.40;55.20;;;;;;5064378;28;20376;-54
2021/07/03 11:48:19;;;;;;;9.65;6.50;;;29.70;53.00;;;;;;5058743;28;20416;-53
2021/07/03 11:50:47;;;;;;;8.50;6.50;;;29.80;52.00;;;;;;5051580;28;20398;-54
2021/07/03 11:53:15;;;;;;;10.90;6.45;;;29.40;52.00;;;;;;5036434;28;20406;-54
2021/07/03 11:55:45;;;;;;;9.98;6.47;;;29.10;53.70;;;;;;5046595;28;21185;-56
2021/07/03 11:58:16;;;;;;;9.50;6.72;;;29.20;54.20;;;;;;5035102;28;20385;-55
2021/07/03 12:00:47;;;;;;;9.05;6.10;;;29.30;53.20;;;;;;5040603;28;20877;-54
2021/07/03 12:03:13;;;;;;;10.00;6.30;;;29.40;52.70;;;;;;5043036;28;20404;-53
2021/07/03 12:05:48;;;;;;;9.60;6.50;;;29.70;53.90;;;;;;5036140;28;20392;-54
2021/07/03 12:08:14;;;;;;;9.57;6.47;;;29.40;52.40;;;;;;5034841;28;20424;-54
2021/07/03 12:10:56;;;;;;;10.30;6.33;;;29.50;52.70;;;;;;5058431;28;20527;-56
2021/07/03 12:13:32;;;;;;;9.65;5.80;;;29.60;54.10;;;;;;5047853;28;20386;-54
2021/07/03 12:15:58;;;;;;;9.35;6.10;;;29.60;52.50;;;;;;5050656;28;20405;-55
2021/07/03 12:18:45;;;;;;;9.10;6.20;;;29.50;52.80;;;;;;5053592;28;20395;-55
2021/07/03 12:21:16;;;;;;;9.50;6.53;;;28.60;53.50;;;;;;5020375;28;20400;-60
2021/07/03 12:23:47;;;;;;;9.37;6.57;;;29.00;53.70;;;;;;5039740;28;20405;-55
2021/07/03 12:26:26;;;;;;;10.85;6.25;;;28.80;52.00;;;;;;5060232;28;20429;-55
2021/07/03 12:28:58;;;;;;;8.75;5.28;;;28.80;53.90;;;;;;5070090;28;20412;-55
2021/07/03 12:31:30;;;;;;;9.45;6.57;;;29.00;54.10;;;;;;5037617;28;20945;-55
2021/07/03 12:34:04;;;;;;;8.38;5.55;;;29.20;51.40;;;;;;5049649;28;20886;-54
2021/07/03 12:36:31;;;;;;;8.20;6.10;;;29.30;51.30;;;;;;5049167;28;20492;-55